sensor_id;sensor_type;location;lat;lon;timestamp;P1;durP1;ratioP1;P2;durP2;ratioP2
64936;SDS011;51452;47.698;19.050;2023-06-22T00:01:09;10.63;;;3.30;;
64936;SDS011;51452;47.698;19.050;2023-06-22T00:03:35;12.52;;;3.63;;
64936;SDS011;51452;47.698;19.050;2023-06-22T00:06:00;10.48;;;2.97;;
64936;SDS011;51452;47.698;19.050;2023-06-22T00:08:25;6.57;;;3.22;;
64936;SDS011;51452;47.698;19.050;2023-06-22T00:10:51;8.27;;;3.00;;
64936;SDS011;51452;47.698;19.050;2023-06-22T00:13:16;8.65;;;3.03;;
64936;SDS011;51452;47.698;19.050;2023-06-22T00:15:43;8.02;;;3.20;;
64936;SDS011;51452;47.698;19.050;2023-06-22T00:18:09;10.52;;;3.15;;
64936;SDS011;51452;47.698;19.050;2023-06-22T00:20:36;7.15;;;2.78;;
64936;SDS011;51452;47.698;19.050;2023-06-22T00:23:05;9.82;;;3.25;;
64936;SDS011;51452;47.698;19.050;2023-06-22T00:25:39;10.32;;;3.08;;
64936;SDS011;51452;47.698;19.050;2023-06-22T00:28:05;7.85;;;2.83;;
64936;SDS011;51452;47.698;19.050;2023-06-22T00:30:32;13.50;;;3.10;;
64936;SDS011;51452;47.698;19.050;2023-06-22T00:32:58;9.90;;;2.58;;
64936;SDS011;51452;47.698;19.050;2023-06-22T00:35:24;9.43;;;2.35;;
64936;SDS011;51452;47.698;19.050;2023-06-22T00:37:54;6.32;;;2.33;;
64936;SDS011;51452;47.698;19.050;2023-06-22T00:40:32;9.63;;;2.55;;
64936;SDS011;51452;47.698;19.050;2023-06-22T00:42:58;7.45;;;2.60;;
64936;SDS011;51452;47.698;19.050;2023-06-22T00:45:24;10.52;;;2.45;;
64936;SDS011;51452;47.698;19.050;2023-06-22T00:47:51;6.40;;;2.40;;
64936;SDS011;51452;47.698;19.050;2023-06-22T00:50:18;8.10;;;2.45;;
64936;SDS011;51452;47.698;19.050;2023-06-22T00:52:48;7.03;;;2.17;;
64936;SDS011;51452;47.698;19.050;2023-06-22T00:55:15;7.22;;;2.10;;
64936;SDS011;51452;47.698;19.050;2023-06-22T00:57:43;5.43;;;2.50;;
64936;SDS011;51452;47.698;19.050;2023-06-22T01:00:10;5.32;;;2.10;;
64936;SDS011;51452;47.698;19.050;2023-06-22T01:02:43;8.10;;;2.30;;
64936;SDS011;51452;47.698;19.050;2023-06-22T01:05:13;4.93;;;2.20;;
64936;SDS011;51452;47.698;19.050;2023-06-22T01:07:44;7.97;;;1.75;;
64936;SDS011;51452;47.698;19.050;2023-06-22T01:16:23;5.22;;;2.17;;
64936;SDS011;51452;47.698;19.050;2023-06-22T01:18:50;5.18;;;1.88;;
64936;SDS011;51452;47.698;19.050;2023-06-22T01:21:20;10.10;;;3.65;;
64936;SDS011;51452;47.698;19.050;2023-06-22T01:29:25;5.72;;;1.90;;
64936;SDS011;51452;47.698;19.050;2023-06-22T01:31:52;7.10;;;2.13;;
64936;SDS011;51452;47.698;19.050;2023-06-22T01:34:21;4.90;;;2.17;;
64936;SDS011;51452;47.698;19.050;2023-06-22T01:36:48;6.65;;;2.10;;
64936;SDS011;51452;47.698;19.050;2023-06-22T01:39:15;10.55;;;2.45;;
64936;SDS011;51452;47.698;19.050;2023-06-22T01:41:41;6.55;;;2.40;;
64936;SDS011;51452;47.698;19.050;2023-06-22T01:44:08;6.65;;;2.20;;
64936;SDS011;51452;47.698;19.050;2023-06-22T01:46:34;9.02;;;3.08;;
64936;SDS011;51452;47.698;19.050;2023-06-22T01:49:02;8.73;;;2.50;;
64936;SDS011;51452;47.698;19.050;2023-06-22T01:51:28;8.07;;;2.53;;
64936;SDS011;51452;47.698;19.050;2023-06-22T01:53:55;5.25;;;2.08;;
64936;SDS011;51452;47.698;19.050;2023-06-22T01:56:20;8.40;;;2.45;;
64936;SDS011;51452;47.698;19.050;2023-06-22T01:58:51;6.40;;;2.00;;
64936;SDS011;51452;47.698;19.050;2023-06-22T02:01:24;6.50;;;2.33;;
64936;SDS011;51452;47.698;19.050;2023-06-22T02:04:02;3.85;;;2.10;;
64936;SDS011;51452;47.698;19.050;2023-06-22T02:06:33;9.43;;;2.38;;
64936;SDS011;51452;47.698;19.050;2023-06-22T02:09:05;6.53;;;2.60;;
64936;SDS011;51452;47.698;19.050;2023-06-22T02:11:35;9.10;;;2.70;;
64936;SDS011;51452;47.698;19.050;2023-06-22T02:14:02;6.18;;;2.22;;
64936;SDS011;51452;47.698;19.050;2023-06-22T02:16:28;5.65;;;2.42;;
64936;SDS011;51452;47.698;19.050;2023-06-22T02:18:57;9.57;;;2.28;;
64936;SDS011;51452;47.698;19.050;2023-06-22T02:21:28;7.57;;;2.50;;
64936;SDS011;51452;47.698;19.050;2023-06-22T02:23:53;7.53;;;2.25;;
64936;SDS011;51452;47.698;19.050;2023-06-22T02:26:19;6.00;;;2.00;;
64936;SDS011;51452;47.698;19.050;2023-06-22T02:28:44;12.43;;;2.35;;
64936;SDS011;51452;47.698;19.050;2023-06-22T02:31:11;8.25;;;2.35;;
64936;SDS011;51452;47.698;19.050;2023-06-22T02:33:36;4.75;;;2.20;;
64936;SDS011;51452;47.698;19.050;2023-06-22T02:36:02;7.65;;;2.70;;
64936;SDS011;51452;47.698;19.050;2023-06-22T02:38:34;10.02;;;2.50;;
64936;SDS011;51452;47.698;19.050;2023-06-22T02:41:01;8.85;;;2.72;;
64936;SDS011;51452;47.698;19.050;2023-06-22T02:43:27;7.53;;;2.45;;
64936;SDS011;51452;47.698;19.050;2023-06-22T02:45:52;8.35;;;2.53;;
64936;SDS011;51452;47.698;19.050;2023-06-22T02:48:18;9.93;;;2.63;;
64936;SDS011;51452;47.698;19.050;2023-06-22T02:50:43;7.85;;;2.78;;
64936;SDS011;51452;47.698;19.050;2023-06-22T02:53:09;8.38;;;2.38;;
64936;SDS011;51452;47.698;19.050;2023-06-22T02:55:34;4.25;;;2.17;;
64936;SDS011;51452;47.698;19.050;2023-06-22T02:57:59;7.60;;;2.58;;
64936;SDS011;51452;47.698;19.050;2023-06-22T03:00:29;11.30;;;2.47;;
64936;SDS011;51452;47.698;19.050;2023-06-22T03:02:55;7.15;;;2.60;;
64936;SDS011;51452;47.698;19.050;2023-06-22T03:05:22;7.32;;;2.75;;
64936;SDS011;51452;47.698;19.050;2023-06-22T03:07:48;7.70;;;3.00;;
64936;SDS011;51452;47.698;19.050;2023-06-22T03:10:14;9.20;;;3.67;;
64936;SDS011;51452;47.698;19.050;2023-06-22T03:12:41;5.20;;;2.42;;
64936;SDS011;51452;47.698;19.050;2023-06-22T03:15:09;9.55;;;2.70;;
64936;SDS011;51452;47.698;19.050;2023-06-22T03:17:36;5.78;;;2.70;;
64936;SDS011;51452;47.698;19.050;2023-06-22T03:20:03;10.27;;;3.10;;
64936;SDS011;51452;47.698;19.050;2023-06-22T03:22:39;5.15;;;2.20;;
64936;SDS011;51452;47.698;19.050;2023-06-22T03:25:07;8.30;;;2.50;;
64936;SDS011;51452;47.698;19.050;2023-06-22T03:27:38;5.63;;;2.30;;
64936;SDS011;51452;47.698;19.050;2023-06-22T03:30:07;5.28;;;2.45;;
64936;SDS011;51452;47.698;19.050;2023-06-22T03:32:34;10.02;;;2.92;;
64936;SDS011;51452;47.698;19.050;2023-06-22T03:34:59;10.70;;;3.20;;
64936;SDS011;51452;47.698;19.050;2023-06-22T03:37:25;4.03;;;2.60;;
64936;SDS011;51452;47.698;19.050;2023-06-22T03:39:51;5.75;;;2.13;;
64936;SDS011;51452;47.698;19.050;2023-06-22T03:42:17;7.82;;;2.60;;
64936;SDS011;51452;47.698;19.050;2023-06-22T03:44:42;7.10;;;2.90;;
64936;SDS011;51452;47.698;19.050;2023-06-22T03:47:07;7.45;;;2.83;;
64936;SDS011;51452;47.698;19.050;2023-06-22T03:49:33;7.65;;;2.83;;
64936;SDS011;51452;47.698;19.050;2023-06-22T03:51:59;6.10;;;3.08;;
64936;SDS011;51452;47.698;19.050;2023-06-22T03:54:27;9.10;;;3.83;;
64936;SDS011;51452;47.698;19.050;2023-06-22T03:56:53;12.90;;;2.97;;
64936;SDS011;51452;47.698;19.050;2023-06-22T03:59:19;4.82;;;2.80;;
64936;SDS011;51452;47.698;19.050;2023-06-22T04:01:44;9.63;;;2.60;;
64936;SDS011;51452;47.698;19.050;2023-06-22T04:04:10;7.57;;;2.90;;
64936;SDS011;51452;47.698;19.050;2023-06-22T04:06:35;5.15;;;2.58;;
64936;SDS011;51452;47.698;19.050;2023-06-22T04:09:01;10.27;;;2.75;;
64936;SDS011;51452;47.698;19.050;2023-06-22T04:11:26;7.82;;;3.08;;
64936;SDS011;51452;47.698;19.050;2023-06-22T04:13:51;6.63;;;2.25;;
64936;SDS011;51452;47.698;19.050;2023-06-22T04:16:17;6.55;;;2.60;;
64936;SDS011;51452;47.698;19.050;2023-06-22T04:18:42;8.50;;;2.25;;
64936;SDS011;51452;47.698;19.050;2023-06-22T04:21:07;7.70;;;2.55;;
64936;SDS011;51452;47.698;19.050;2023-06-22T04:23:33;8.68;;;2.40;;
64936;SDS011;51452;47.698;19.050;2023-06-22T04:25:58;9.10;;;2.97;;
64936;SDS011;51452;47.698;19.050;2023-06-22T04:28:26;8.30;;;2.72;;
64936;SDS011;51452;47.698;19.050;2023-06-22T04:30:52;7.50;;;2.60;;
64936;SDS011;51452;47.698;19.050;2023-06-22T04:33:17;6.72;;;2.60;;
64936;SDS011;51452;47.698;19.050;2023-06-22T04:35:45;6.95;;;2.58;;
64936;SDS011;51452;47.698;19.050;2023-06-22T04:38:14;10.18;;;2.72;;
64936;SDS011;51452;47.698;19.050;2023-06-22T04:40:39;7.03;;;2.45;;
64936;SDS011;51452;47.698;19.050;2023-06-22T04:43:05;7.25;;;2.80;;
64936;SDS011;51452;47.698;19.050;2023-06-22T04:45:31;6.65;;;2.38;;
64936;SDS011;51452;47.698;19.050;2023-06-22T04:47:58;4.05;;;2.50;;
64936;SDS011;51452;47.698;19.050;2023-06-22T04:50:23;7.00;;;2.45;;
64936;SDS011;51452;47.698;19.050;2023-06-22T04:52:49;8.85;;;3.47;;
64936;SDS011;51452;47.698;19.050;2023-06-22T04:55:15;7.05;;;3.25;;
64936;SDS011;51452;47.698;19.050;2023-06-22T04:57:48;9.20;;;3.50;;
64936;SDS011;51452;47.698;19.050;2023-06-22T05:02:47;6.97;;;3.85;;
64936;SDS011;51452;47.698;19.050;2023-06-22T05:05:13;10.63;;;3.28;;
64936;SDS011;51452;47.698;19.050;2023-06-22T05:07:50;10.30;;;3.55;;
64936;SDS011;51452;47.698;19.050;2023-06-22T05:10:18;9.45;;;3.20;;
64936;SDS011;51452;47.698;19.050;2023-06-22T05:12:44;7.18;;;2.95;;
64936;SDS011;51452;47.698;19.050;2023-06-22T05:15:09;8.85;;;3.00;;
64936;SDS011;51452;47.698;19.050;2023-06-22T05:17:35;4.38;;;2.85;;
64936;SDS011;51452;47.698;19.050;2023-06-22T05:20:02;9.50;;;2.65;;
64936;SDS011;51452;47.698;19.050;2023-06-22T05:22:31;6.82;;;2.50;;
64936;SDS011;51452;47.698;19.050;2023-06-22T05:24:56;5.78;;;2.50;;
64936;SDS011;51452;47.698;19.050;2023-06-22T05:27:22;10.02;;;3.10;;
64936;SDS011;51452;47.698;19.050;2023-06-22T05:29:47;8.45;;;3.35;;
64936;SDS011;51452;47.698;19.050;2023-06-22T05:32:12;11.65;;;3.53;;
64936;SDS011;51452;47.698;19.050;2023-06-22T05:34:38;10.13;;;3.38;;
64936;SDS011;51452;47.698;19.050;2023-06-22T05:37:04;5.93;;;2.90;;
64936;SDS011;51452;47.698;19.050;2023-06-22T05:39:29;7.20;;;2.95;;
64936;SDS011;51452;47.698;19.050;2023-06-22T05:41:55;8.05;;;3.15;;
64936;SDS011;51452;47.698;19.050;2023-06-22T05:44:20;7.75;;;2.78;;
64936;SDS011;51452;47.698;19.050;2023-06-22T05:46:45;9.43;;;3.30;;
64936;SDS011;51452;47.698;19.050;2023-06-22T05:49:15;6.80;;;3.00;;
64936;SDS011;51452;47.698;19.050;2023-06-22T05:51:41;8.32;;;2.92;;
64936;SDS011;51452;47.698;19.050;2023-06-22T05:54:07;7.10;;;2.42;;
64936;SDS011;51452;47.698;19.050;2023-06-22T05:56:35;10.32;;;3.00;;
64936;SDS011;51452;47.698;19.050;2023-06-22T05:59:01;8.57;;;2.50;;
64936;SDS011;51452;47.698;19.050;2023-06-22T06:01:26;6.88;;;2.28;;
64936;SDS011;51452;47.698;19.050;2023-06-22T06:03:52;12.73;;;2.92;;
64936;SDS011;51452;47.698;19.050;2023-06-22T06:06:18;8.00;;;2.17;;
64936;SDS011;51452;47.698;19.050;2023-06-22T06:08:46;6.90;;;2.70;;
64936;SDS011;51452;47.698;19.050;2023-06-22T06:11:11;6.30;;;2.50;;
64936;SDS011;51452;47.698;19.050;2023-06-22T06:13:36;8.93;;;2.80;;
64936;SDS011;51452;47.698;19.050;2023-06-22T06:16:02;10.63;;;2.75;;
64936;SDS011;51452;47.698;19.050;2023-06-22T06:18:27;7.03;;;2.47;;
64936;SDS011;51452;47.698;19.050;2023-06-22T06:20:53;6.38;;;2.92;;
64936;SDS011;51452;47.698;19.050;2023-06-22T06:23:18;8.48;;;2.88;;
64936;SDS011;51452;47.698;19.050;2023-06-22T06:25:44;8.55;;;2.85;;
64936;SDS011;51452;47.698;19.050;2023-06-22T06:28:09;9.70;;;2.95;;
64936;SDS011;51452;47.698;19.050;2023-06-22T06:30:35;7.53;;;3.22;;
64936;SDS011;51452;47.698;19.050;2023-06-22T06:33:02;12.18;;;3.40;;
64936;SDS011;51452;47.698;19.050;2023-06-22T06:35:28;8.50;;;3.13;;
64936;SDS011;51452;47.698;19.050;2023-06-22T06:37:53;8.18;;;3.10;;
64936;SDS011;51452;47.698;19.050;2023-06-22T06:40:18;6.82;;;3.45;;
64936;SDS011;51452;47.698;19.050;2023-06-22T06:42:45;7.10;;;2.75;;
64936;SDS011;51452;47.698;19.050;2023-06-22T06:45:11;5.97;;;2.90;;
64936;SDS011;51452;47.698;19.050;2023-06-22T06:47:38;5.15;;;2.70;;
64936;SDS011;51452;47.698;19.050;2023-06-22T06:50:04;8.63;;;3.03;;
64936;SDS011;51452;47.698;19.050;2023-06-22T06:52:30;8.38;;;2.90;;
64936;SDS011;51452;47.698;19.050;2023-06-22T06:54:56;8.95;;;2.90;;
64936;SDS011;51452;47.698;19.050;2023-06-22T06:57:21;7.65;;;2.95;;
64936;SDS011;51452;47.698;19.050;2023-06-22T06:59:47;9.43;;;2.88;;
64936;SDS011;51452;47.698;19.050;2023-06-22T07:02:14;12.85;;;3.50;;
64936;SDS011;51452;47.698;19.050;2023-06-22T07:04:42;9.52;;;2.72;;
64936;SDS011;51452;47.698;19.050;2023-06-22T07:07:08;5.45;;;2.90;;
64936;SDS011;51452;47.698;19.050;2023-06-22T07:09:33;11.50;;;3.38;;
64936;SDS011;51452;47.698;19.050;2023-06-22T07:11:58;6.75;;;3.08;;
64936;SDS011;51452;47.698;19.050;2023-06-22T07:14:24;7.90;;;3.30;;
64936;SDS011;51452;47.698;19.050;2023-06-22T07:16:49;10.98;;;3.55;;
64936;SDS011;51452;47.698;19.050;2023-06-22T07:19:14;10.82;;;3.28;;
64936;SDS011;51452;47.698;19.050;2023-06-22T07:21:40;7.65;;;3.25;;
64936;SDS011;51452;47.698;19.050;2023-06-22T07:24:06;12.55;;;3.08;;
64936;SDS011;51452;47.698;19.050;2023-06-22T07:26:32;8.85;;;2.97;;
64936;SDS011;51452;47.698;19.050;2023-06-22T07:28:58;8.43;;;3.25;;
64936;SDS011;51452;47.698;19.050;2023-06-22T07:31:26;8.57;;;2.72;;
64936;SDS011;51452;47.698;19.050;2023-06-22T07:33:51;6.70;;;2.88;;
64936;SDS011;51452;47.698;19.050;2023-06-22T07:36:17;8.20;;;3.08;;
64936;SDS011;51452;47.698;19.050;2023-06-22T07:38:43;11.55;;;3.00;;
64936;SDS011;51452;47.698;19.050;2023-06-22T07:41:09;10.23;;;2.75;;
64936;SDS011;51452;47.698;19.050;2023-06-22T07:43:34;7.15;;;2.85;;
64936;SDS011;51452;47.698;19.050;2023-06-22T07:46:02;8.35;;;3.03;;
64936;SDS011;51452;47.698;19.050;2023-06-22T07:48:28;9.13;;;2.70;;
64936;SDS011;51452;47.698;19.050;2023-06-22T07:50:54;6.20;;;2.92;;
64936;SDS011;51452;47.698;19.050;2023-06-22T07:53:20;6.03;;;2.75;;
64936;SDS011;51452;47.698;19.050;2023-06-22T07:55:45;8.93;;;3.40;;
64936;SDS011;51452;47.698;19.050;2023-06-22T07:58:11;7.45;;;3.53;;
64936;SDS011;51452;47.698;19.050;2023-06-22T08:00:36;6.45;;;3.53;;
64936;SDS011;51452;47.698;19.050;2023-06-22T08:03:02;6.50;;;3.20;;
64936;SDS011;51452;47.698;19.050;2023-06-22T08:05:30;7.80;;;3.47;;
64936;SDS011;51452;47.698;19.050;2023-06-22T08:07:55;6.03;;;3.17;;
64936;SDS011;51452;47.698;19.050;2023-06-22T08:10:21;9.57;;;3.67;;
64936;SDS011;51452;47.698;19.050;2023-06-22T08:12:46;10.23;;;3.30;;
64936;SDS011;51452;47.698;19.050;2023-06-22T08:15:12;13.18;;;4.05;;
64936;SDS011;51452;47.698;19.050;2023-06-22T08:17:37;8.23;;;3.85;;
64936;SDS011;51452;47.698;19.050;2023-06-22T08:20:03;9.52;;;3.78;;
64936;SDS011;51452;47.698;19.050;2023-06-22T08:22:34;9.50;;;3.50;;
64936;SDS011;51452;47.698;19.050;2023-06-22T08:25:01;10.90;;;4.00;;
64936;SDS011;51452;47.698;19.050;2023-06-22T08:27:28;9.25;;;3.53;;
64936;SDS011;51452;47.698;19.050;2023-06-22T08:29:56;9.00;;;4.00;;
64936;SDS011;51452;47.698;19.050;2023-06-22T08:32:23;6.32;;;3.67;;
64936;SDS011;51452;47.698;19.050;2023-06-22T08:34:51;12.40;;;3.63;;
64936;SDS011;51452;47.698;19.050;2023-06-22T08:37:17;7.80;;;3.30;;
64936;SDS011;51452;47.698;19.050;2023-06-22T08:39:42;10.10;;;3.78;;
64936;SDS011;51452;47.698;19.050;2023-06-22T08:42:08;7.63;;;3.88;;
64936;SDS011;51452;47.698;19.050;2023-06-22T08:44:33;11.48;;;3.50;;
64936;SDS011;51452;47.698;19.050;2023-06-22T08:46:58;11.75;;;3.53;;
64936;SDS011;51452;47.698;19.050;2023-06-22T08:49:24;7.22;;;3.42;;
64936;SDS011;51452;47.698;19.050;2023-06-22T08:51:49;10.15;;;3.88;;
64936;SDS011;51452;47.698;19.050;2023-06-22T08:54:17;10.25;;;3.88;;
64936;SDS011;51452;47.698;19.050;2023-06-22T08:56:42;6.88;;;3.53;;
64936;SDS011;51452;47.698;19.050;2023-06-22T08:59:09;7.35;;;3.00;;
64936;SDS011;51452;47.698;19.050;2023-06-22T09:01:34;8.25;;;3.55;;
64936;SDS011;51452;47.698;19.050;2023-06-22T09:03:59;8.88;;;3.53;;
64936;SDS011;51452;47.698;19.050;2023-06-22T09:06:25;8.38;;;2.83;;
64936;SDS011;51452;47.698;19.050;2023-06-22T09:08:51;8.73;;;3.40;;
64936;SDS011;51452;47.698;19.050;2023-06-22T09:11:16;7.25;;;3.08;;
64936;SDS011;51452;47.698;19.050;2023-06-22T09:13:42;7.55;;;3.58;;
64936;SDS011;51452;47.698;19.050;2023-06-22T09:16:07;10.70;;;3.50;;
64936;SDS011;51452;47.698;19.050;2023-06-22T09:18:36;7.13;;;3.47;;
64936;SDS011;51452;47.698;19.050;2023-06-22T09:21:01;10.25;;;4.07;;
64936;SDS011;51452;47.698;19.050;2023-06-22T09:23:27;10.50;;;3.60;;
64936;SDS011;51452;47.698;19.050;2023-06-22T09:25:52;7.90;;;3.90;;
64936;SDS011;51452;47.698;19.050;2023-06-22T09:28:18;8.73;;;3.80;;
64936;SDS011;51452;47.698;19.050;2023-06-22T09:30:43;10.88;;;3.78;;
64936;SDS011;51452;47.698;19.050;2023-06-22T09:33:09;8.82;;;3.65;;
64936;SDS011;51452;47.698;19.050;2023-06-22T09:35:35;11.48;;;4.32;;
64936;SDS011;51452;47.698;19.050;2023-06-22T09:38:00;9.88;;;3.80;;
64936;SDS011;51452;47.698;19.050;2023-06-22T09:40:25;9.43;;;3.65;;
64936;SDS011;51452;47.698;19.050;2023-06-22T09:42:51;6.40;;;4.10;;
64936;SDS011;51452;47.698;19.050;2023-06-22T09:45:16;8.75;;;3.90;;
64936;SDS011;51452;47.698;19.050;2023-06-22T09:47:42;6.85;;;3.92;;
64936;SDS011;51452;47.698;19.050;2023-06-22T09:50:07;10.95;;;4.00;;
64936;SDS011;51452;47.698;19.050;2023-06-22T09:52:33;6.88;;;3.67;;
64936;SDS011;51452;47.698;19.050;2023-06-22T09:54:59;10.93;;;4.22;;
64936;SDS011;51452;47.698;19.050;2023-06-22T09:57:24;7.72;;;3.90;;
64936;SDS011;51452;47.698;19.050;2023-06-22T09:59:49;11.35;;;4.40;;
64936;SDS011;51452;47.698;19.050;2023-06-22T10:02:15;8.07;;;4.03;;
64936;SDS011;51452;47.698;19.050;2023-06-22T10:04:40;10.45;;;4.22;;
64936;SDS011;51452;47.698;19.050;2023-06-22T10:07:09;7.43;;;4.40;;
64936;SDS011;51452;47.698;19.050;2023-06-22T10:09:34;10.93;;;4.38;;
64936;SDS011;51452;47.698;19.050;2023-06-22T10:12:00;7.90;;;4.25;;
64936;SDS011;51452;47.698;19.050;2023-06-22T10:14:25;11.60;;;4.05;;
64936;SDS011;51452;47.698;19.050;2023-06-22T10:16:52;11.00;;;4.15;;
64936;SDS011;51452;47.698;19.050;2023-06-22T10:19:17;9.80;;;4.00;;
64936;SDS011;51452;47.698;19.050;2023-06-22T10:21:43;8.00;;;3.70;;
64936;SDS011;51452;47.698;19.050;2023-06-22T10:24:08;10.05;;;4.13;;
64936;SDS011;51452;47.698;19.050;2023-06-22T10:26:34;8.50;;;3.92;;
64936;SDS011;51452;47.698;19.050;2023-06-22T10:29:01;12.05;;;4.57;;
64936;SDS011;51452;47.698;19.050;2023-06-22T10:31:29;10.45;;;3.90;;
64936;SDS011;51452;47.698;19.050;2023-06-22T10:33:55;7.80;;;4.38;;
64936;SDS011;51452;47.698;19.050;2023-06-22T10:36:21;7.10;;;3.97;;
64936;SDS011;51452;47.698;19.050;2023-06-22T10:38:47;9.15;;;3.80;;
64936;SDS011;51452;47.698;19.050;2023-06-22T10:41:13;9.77;;;4.25;;
64936;SDS011;51452;47.698;19.050;2023-06-22T10:43:38;9.77;;;4.30;;
64936;SDS011;51452;47.698;19.050;2023-06-22T10:46:04;8.45;;;3.80;;
64936;SDS011;51452;47.698;19.050;2023-06-22T10:48:29;6.82;;;4.20;;
64936;SDS011;51452;47.698;19.050;2023-06-22T10:50:54;9.98;;;3.83;;
64936;SDS011;51452;47.698;19.050;2023-06-22T10:53:20;9.02;;;3.85;;
64936;SDS011;51452;47.698;19.050;2023-06-22T10:55:46;9.10;;;3.70;;
64936;SDS011;51452;47.698;19.050;2023-06-22T10:58:11;7.97;;;3.78;;
64936;SDS011;51452;47.698;19.050;2023-06-22T11:00:37;6.90;;;3.88;;
64936;SDS011;51452;47.698;19.050;2023-06-22T11:03:02;7.03;;;3.28;;
64936;SDS011;51452;47.698;19.050;2023-06-22T11:05:28;14.32;;;4.60;;
64936;SDS011;51452;47.698;19.050;2023-06-22T11:07:53;9.57;;;4.28;;
64936;SDS011;51452;47.698;19.050;2023-06-22T11:10:19;8.40;;;3.97;;
64936;SDS011;51452;47.698;19.050;2023-06-22T11:12:44;8.60;;;3.53;;
64936;SDS011;51452;47.698;19.050;2023-06-22T11:15:09;7.32;;;3.50;;
64936;SDS011;51452;47.698;19.050;2023-06-22T11:17:35;8.38;;;3.53;;
64936;SDS011;51452;47.698;19.050;2023-06-22T11:20:01;7.45;;;3.60;;
64936;SDS011;51452;47.698;19.050;2023-06-22T11:22:26;8.30;;;3.63;;
64936;SDS011;51452;47.698;19.050;2023-06-22T11:24:52;7.88;;;3.80;;
64936;SDS011;51452;47.698;19.050;2023-06-22T11:27:17;8.88;;;3.67;;
64936;SDS011;51452;47.698;19.050;2023-06-22T11:29:43;8.35;;;3.67;;
64936;SDS011;51452;47.698;19.050;2023-06-22T11:32:08;9.73;;;3.85;;
64936;SDS011;51452;47.698;19.050;2023-06-22T11:34:34;7.80;;;3.40;;
64936;SDS011;51452;47.698;19.050;2023-06-22T11:36:59;10.25;;;3.85;;
64936;SDS011;51452;47.698;19.050;2023-06-22T11:39:24;12.85;;;3.83;;
64936;SDS011;51452;47.698;19.050;2023-06-22T11:41:50;7.18;;;3.80;;
64936;SDS011;51452;47.698;19.050;2023-06-22T11:44:15;12.35;;;4.38;;
64936;SDS011;51452;47.698;19.050;2023-06-22T11:46:40;10.18;;;3.80;;
64936;SDS011;51452;47.698;19.050;2023-06-22T11:49:06;11.60;;;4.60;;
64936;SDS011;51452;47.698;19.050;2023-06-22T11:51:32;8.18;;;3.65;;
64936;SDS011;51452;47.698;19.050;2023-06-22T11:53:58;9.25;;;3.55;;
64936;SDS011;51452;47.698;19.050;2023-06-22T11:56:23;7.53;;;4.22;;
64936;SDS011;51452;47.698;19.050;2023-06-22T11:58:49;9.45;;;3.85;;
64936;SDS011;51452;47.698;19.050;2023-06-22T12:01:14;7.93;;;3.40;;
64936;SDS011;51452;47.698;19.050;2023-06-22T12:03:40;7.80;;;4.10;;
64936;SDS011;51452;47.698;19.050;2023-06-22T12:06:06;12.48;;;4.47;;
64936;SDS011;51452;47.698;19.050;2023-06-22T12:08:31;10.65;;;3.97;;
64936;SDS011;51452;47.698;19.050;2023-06-22T12:10:57;8.27;;;4.03;;
64936;SDS011;51452;47.698;19.050;2023-06-22T12:13:22;8.63;;;3.75;;
64936;SDS011;51452;47.698;19.050;2023-06-22T12:15:47;9.27;;;4.03;;
64936;SDS011;51452;47.698;19.050;2023-06-22T12:18:13;8.02;;;3.80;;
64936;SDS011;51452;47.698;19.050;2023-06-22T12:20:41;8.60;;;3.83;;
64936;SDS011;51452;47.698;19.050;2023-06-22T12:23:07;7.53;;;3.70;;
64936;SDS011;51452;47.698;19.050;2023-06-22T12:25:32;9.90;;;3.55;;
64936;SDS011;51452;47.698;19.050;2023-06-22T12:27:57;8.50;;;3.25;;
64936;SDS011;51452;47.698;19.050;2023-06-22T12:30:23;9.35;;;4.20;;
64936;SDS011;51452;47.698;19.050;2023-06-22T12:32:48;8.05;;;3.78;;
64936;SDS011;51452;47.698;19.050;2023-06-22T12:35:15;7.95;;;3.90;;
64936;SDS011;51452;47.698;19.050;2023-06-22T12:37:41;7.47;;;3.50;;
64936;SDS011;51452;47.698;19.050;2023-06-22T12:40:10;9.52;;;4.18;;
64936;SDS011;51452;47.698;19.050;2023-06-22T12:42:35;7.75;;;4.15;;
64936;SDS011;51452;47.698;19.050;2023-06-22T12:45:01;9.70;;;4.10;;
64936;SDS011;51452;47.698;19.050;2023-06-22T12:47:27;10.55;;;3.80;;
64936;SDS011;51452;47.698;19.050;2023-06-22T12:49:52;9.82;;;3.67;;
64936;SDS011;51452;47.698;19.050;2023-06-22T12:52:17;9.25;;;3.80;;
64936;SDS011;51452;47.698;19.050;2023-06-22T12:54:43;12.18;;;4.00;;
64936;SDS011;51452;47.698;19.050;2023-06-22T12:57:08;8.82;;;3.55;;
64936;SDS011;51452;47.698;19.050;2023-06-22T12:59:34;9.55;;;4.28;;
64936;SDS011;51452;47.698;19.050;2023-06-22T13:01:59;8.77;;;3.90;;
64936;SDS011;51452;47.698;19.050;2023-06-22T13:04:24;8.90;;;4.22;;
64936;SDS011;51452;47.698;19.050;2023-06-22T13:06:50;8.57;;;3.75;;
64936;SDS011;51452;47.698;19.050;2023-06-22T13:09:17;8.60;;;4.03;;
64936;SDS011;51452;47.698;19.050;2023-06-22T13:11:43;7.72;;;3.83;;
64936;SDS011;51452;47.698;19.050;2023-06-22T13:14:09;10.77;;;4.22;;
64936;SDS011;51452;47.698;19.050;2023-06-22T13:16:34;11.45;;;3.95;;
64936;SDS011;51452;47.698;19.050;2023-06-22T13:19:00;7.07;;;3.50;;
64936;SDS011;51452;47.698;19.050;2023-06-22T13:21:25;6.90;;;3.92;;
64936;SDS011;51452;47.698;19.050;2023-06-22T13:23:51;10.93;;;4.45;;
64936;SDS011;51452;47.698;19.050;2023-06-22T13:26:16;10.98;;;3.92;;
64936;SDS011;51452;47.698;19.050;2023-06-22T13:28:41;11.40;;;3.72;;
64936;SDS011;51452;47.698;19.050;2023-06-22T13:31:07;10.50;;;3.75;;
64936;SDS011;51452;47.698;19.050;2023-06-22T13:33:32;10.82;;;4.07;;
64936;SDS011;51452;47.698;19.050;2023-06-22T13:35:58;7.15;;;4.00;;
64936;SDS011;51452;47.698;19.050;2023-06-22T13:38:23;6.47;;;3.53;;
64936;SDS011;51452;47.698;19.050;2023-06-22T13:40:49;8.38;;;4.28;;
64936;SDS011;51452;47.698;19.050;2023-06-22T13:43:15;5.68;;;3.83;;
64936;SDS011;51452;47.698;19.050;2023-06-22T13:45:41;10.35;;;4.32;;
64936;SDS011;51452;47.698;19.050;2023-06-22T13:48:06;10.73;;;4.43;;
64936;SDS011;51452;47.698;19.050;2023-06-22T13:50:32;12.80;;;4.70;;
64936;SDS011;51452;47.698;19.050;2023-06-22T13:52:57;8.70;;;3.75;;
64936;SDS011;51452;47.698;19.050;2023-06-22T13:55:23;10.75;;;4.55;;
64936;SDS011;51452;47.698;19.050;2023-06-22T13:57:48;5.35;;;4.13;;
64936;SDS011;51452;47.698;19.050;2023-06-22T14:00:14;8.35;;;4.82;;
64936;SDS011;51452;47.698;19.050;2023-06-22T14:02:40;7.22;;;4.22;;
64936;SDS011;51452;47.698;19.050;2023-06-22T14:05:06;10.40;;;4.28;;
64936;SDS011;51452;47.698;19.050;2023-06-22T14:07:32;10.07;;;4.72;;
64936;SDS011;51452;47.698;19.050;2023-06-22T14:09:57;10.85;;;5.07;;
64936;SDS011;51452;47.698;19.050;2023-06-22T14:12:23;9.35;;;4.60;;
64936;SDS011;51452;47.698;19.050;2023-06-22T14:14:49;8.98;;;4.47;;
64936;SDS011;51452;47.698;19.050;2023-06-22T14:17:14;8.63;;;4.57;;
64936;SDS011;51452;47.698;19.050;2023-06-22T14:19:40;12.68;;;4.95;;
64936;SDS011;51452;47.698;19.050;2023-06-22T14:22:05;7.85;;;5.30;;
64936;SDS011;51452;47.698;19.050;2023-06-22T14:24:31;11.02;;;5.88;;
64936;SDS011;51452;47.698;19.050;2023-06-22T14:26:56;9.05;;;5.38;;
64936;SDS011;51452;47.698;19.050;2023-06-22T14:29:22;10.63;;;5.47;;
64936;SDS011;51452;47.698;19.050;2023-06-22T14:31:48;9.63;;;4.97;;
64936;SDS011;51452;47.698;19.050;2023-06-22T14:34:14;9.40;;;5.32;;
64936;SDS011;51452;47.698;19.050;2023-06-22T14:36:40;12.88;;;5.32;;
64936;SDS011;51452;47.698;19.050;2023-06-22T14:39:05;9.07;;;5.60;;